CCA580 YSSY-YMML
Flight info
| Callsign | CCA580 |
|---|---|
| Flight time | 1h 6m |
| Altitude | 40000 |
| Route | GROOK1/16R WOL H65 LEECE Q29 ML |
| Aircraft | A359/H-SDE2E3GHIJ3J4J5LM1ORWXY/LB1D1 |
Departure
| Time | 2026-05-05 07:02 |
|---|---|
| Airport | Sydney Kingsford Smith International Airport (YSSY) |
Arrival
| Time | 2026-05-05 08:08 |
|---|---|
| Airport | Melbourne Airport (YMML) |
| Time | Latitude | Longitude | Altitude | Speed | Heading |
|---|---|---|---|---|---|
| 2026-05-05 06:20 | -33.94013 | 151.16616 | 35 ft | 0 kts | 345° |
| 2026-05-05 06:42 | -33.94026 | 151.16620 | 36 ft | 4 kts | 345° |
| 2026-05-05 06:42 | -33.94052 | 151.16629 | 36 ft | 4 kts | 344° |
| 2026-05-05 06:42 | -33.94078 | 151.16638 | 35 ft | 3 kts | 344° |
| 2026-05-05 06:43 | -33.94100 | 151.16642 | 35 ft | 4 kts | 25° |
| 2026-05-05 06:43 | -33.94113 | 151.16622 | 36 ft | 4 kts | 77° |
| 2026-05-05 06:43 | -33.94116 | 151.16605 | 36 ft | 0 kts | 74° |
| 2026-05-05 06:43 | -33.94117 | 151.16605 | 36 ft | 0 kts | 74° |
| 2026-05-05 06:47 | -33.94116 | 151.16609 | 36 ft | 3 kts | 73° |
| 2026-05-05 06:47 | -33.94104 | 151.16655 | 35 ft | 7 kts | 75° |
| 2026-05-05 06:47 | -33.94088 | 151.16727 | 35 ft | 10 kts | 75° |
| 2026-05-05 06:48 | -33.94068 | 151.16816 | 35 ft | 12 kts | 75° |
| 2026-05-05 06:48 | -33.94043 | 151.16922 | 36 ft | 15 kts | 73° |
| 2026-05-05 06:48 | -33.94028 | 151.16981 | 36 ft | 0 kts | 73° |
| 2026-05-05 06:48 | -33.94017 | 151.17028 | 36 ft | 9 kts | 74° |
| 2026-05-05 06:49 | -33.94008 | 151.17067 | 36 ft | 0 kts | 74° |
| 2026-05-05 06:49 | -33.94003 | 151.17087 | 36 ft | 5 kts | 74° |
| 2026-05-05 06:49 | -33.94003 | 151.17089 | 36 ft | 0 kts | 74° |
| 2026-05-05 06:49 | -33.94001 | 151.17097 | 36 ft | 3 kts | 74° |
| 2026-05-05 06:50 | -33.94000 | 151.17101 | 36 ft | 0 kts | 74° |
| 2026-05-05 06:50 | -33.93998 | 151.17110 | 36 ft | 0 kts | 74° |
| 2026-05-05 06:51 | -33.93997 | 151.17114 | 36 ft | 2 kts | 74° |
| 2026-05-05 06:51 | -33.93994 | 151.17126 | 36 ft | 0 kts | 74° |
| 2026-05-05 06:52 | -33.93990 | 151.17140 | 36 ft | 6 kts | 74° |
| 2026-05-05 06:52 | -33.93964 | 151.17199 | 35 ft | 10 kts | 40° |
| 2026-05-05 06:52 | -33.93872 | 151.17200 | 35 ft | 16 kts | 352° |
| 2026-05-05 06:52 | -33.93754 | 151.17169 | 35 ft | 19 kts | 345° |
| 2026-05-05 06:53 | -33.93610 | 151.17132 | 35 ft | 22 kts | 348° |
| 2026-05-05 06:53 | -33.93454 | 151.17091 | 36 ft | 24 kts | 348° |
| 2026-05-05 06:53 | -33.93298 | 151.17008 | 36 ft | 26 kts | 314° |
| 2026-05-05 06:53 | -33.93138 | 151.16933 | 36 ft | 20 kts | 348° |
| 2026-05-05 06:54 | -33.93104 | 151.16924 | 36 ft | 1 kts | 347° |
| 2026-05-05 06:55 | -33.93094 | 151.16921 | 36 ft | 4 kts | 347° |
| 2026-05-05 06:55 | -33.93088 | 151.16920 | 36 ft | 0 kts | 347° |
| 2026-05-05 06:58 | -33.93078 | 151.16917 | 36 ft | 0 kts | 347° |
| 2026-05-05 06:58 | -33.93048 | 151.16911 | 36 ft | 12 kts | 354° |
| 2026-05-05 06:58 | -33.92983 | 151.16962 | 36 ft | 13 kts | 68° |
| 2026-05-05 06:59 | -33.92973 | 151.17008 | 37 ft | 0 kts | 77° |
| 2026-05-05 07:00 | -33.92968 | 151.17032 | 37 ft | 7 kts | 77° |
| 2026-05-05 07:00 | -33.92962 | 151.17114 | 37 ft | 11 kts | 98° |
| 2026-05-05 07:00 | -33.93016 | 151.17177 | 37 ft | 0 kts | 164° |
| 2026-05-05 07:01 | -33.93090 | 151.17198 | 37 ft | 39 kts | 167° |
| 2026-05-05 07:01 | -33.93621 | 151.17336 | 33 ft | 112 kts | 168° |
| 2026-05-05 07:01 | -33.94568 | 151.17581 | 137 ft | 159 kts | 168° |
| 2026-05-05 07:02 | -33.95619 | 151.17852 | 960 ft | 150 kts | 169° |
| 2026-05-05 07:02 | -33.96607 | 151.18111 | 1788 ft | 138 kts | 168° |
| 2026-05-05 07:02 | -33.97556 | 151.18209 | 2341 ft | 144 kts | 187° |
| 2026-05-05 07:02 | -33.98624 | 151.18002 | 2609 ft | 167 kts | 190° |
| 2026-05-05 07:03 | -33.99857 | 151.17792 | 2890 ft | 189 kts | 187° |
| 2026-05-05 07:03 | -34.01224 | 151.17646 | 3203 ft | 207 kts | 185° |
| 2026-05-05 07:03 | -34.02743 | 151.17625 | 3456 ft | 231 kts | 175° |
| 2026-05-05 07:03 | -34.04380 | 151.18034 | 3793 ft | 246 kts | 167° |
| 2026-05-05 07:04 | -34.06062 | 151.18595 | 4171 ft | 253 kts | 167° |
| 2026-05-05 07:04 | -34.07753 | 151.19170 | 4581 ft | 258 kts | 167° |
| 2026-05-05 07:04 | -34.09507 | 151.19764 | 5031 ft | 261 kts | 167° |
| 2026-05-05 07:04 | -34.11252 | 151.20354 | 5499 ft | 264 kts | 167° |
| 2026-05-05 07:05 | -34.13027 | 151.20953 | 5988 ft | 266 kts | 167° |
| 2026-05-05 07:05 | -34.14828 | 151.21554 | 6553 ft | 269 kts | 167° |
| 2026-05-05 07:05 | -34.16651 | 151.22153 | 7378 ft | 272 kts | 169° |
| 2026-05-05 07:05 | -34.18526 | 151.22441 | 8282 ft | 273 kts | 185° |
| 2026-05-05 07:06 | -34.20374 | 151.21971 | 9187 ft | 272 kts | 205° |
| 2026-05-05 07:06 | -34.21950 | 151.20740 | 10129 ft | 271 kts | 225° |
| 2026-05-05 07:06 | -34.23267 | 151.19044 | 10771 ft | 284 kts | 231° |
| 2026-05-05 07:06 | -34.24556 | 151.17205 | 11417 ft | 295 kts | 231° |
| 2026-05-05 07:07 | -34.25894 | 151.15293 | 12257 ft | 299 kts | 231° |
| 2026-05-05 07:07 | -34.27253 | 151.13372 | 13130 ft | 303 kts | 231° |
| 2026-05-05 07:07 | -34.28635 | 151.11413 | 13989 ft | 307 kts | 231° |
| 2026-05-05 07:07 | -34.30030 | 151.09435 | 14728 ft | 312 kts | 231° |
| 2026-05-05 07:08 | -34.31457 | 151.07416 | 15445 ft | 318 kts | 231° |
| 2026-05-05 07:08 | -34.32909 | 151.05366 | 16175 ft | 322 kts | 231° |
| 2026-05-05 07:08 | -34.34372 | 151.03299 | 16909 ft | 326 kts | 231° |
| 2026-05-05 07:08 | -34.35858 | 151.01200 | 17694 ft | 329 kts | 231° |
| 2026-05-05 07:09 | -34.37405 | 150.99137 | 18405 ft | 335 kts | 226° |
| 2026-05-05 07:09 | -34.39147 | 150.97162 | 18785 ft | 350 kts | 224° |
| 2026-05-05 07:09 | -34.41001 | 150.95154 | 19077 ft | 366 kts | 224° |
| 2026-05-05 07:09 | -34.42929 | 150.93074 | 19526 ft | 375 kts | 224° |
| 2026-05-05 07:10 | -34.44873 | 150.90974 | 20140 ft | 381 kts | 224° |
| 2026-05-05 07:10 | -34.46867 | 150.88814 | 20805 ft | 385 kts | 224° |
| 2026-05-05 07:10 | -34.48871 | 150.86639 | 21481 ft | 390 kts | 224° |
| 2026-05-05 07:10 | -34.50899 | 150.84437 | 22197 ft | 393 kts | 225° |
| 2026-05-05 07:11 | -34.52940 | 150.82218 | 22866 ft | 397 kts | 225° |
| 2026-05-05 07:11 | -34.54992 | 150.79937 | 23509 ft | 401 kts | 227° |
| 2026-05-05 07:11 | -34.56849 | 150.77411 | 24083 ft | 403 kts | 234° |
| 2026-05-05 07:11 | -34.58571 | 150.74713 | 24636 ft | 405 kts | 236° |
| 2026-05-05 07:12 | -34.58724 | 150.74464 | 24691 ft | 406 kts | 236° |
| 2026-05-05 07:12 | -34.59880 | 150.72552 | 25078 ft | 408 kts | 237° |
| 2026-05-05 07:12 | -34.61523 | 150.69779 | 25636 ft | 411 kts | 237° |
| 2026-05-05 07:13 | -34.63210 | 150.66915 | 26199 ft | 414 kts | 238° |
| 2026-05-05 07:13 | -34.64872 | 150.64103 | 26773 ft | 417 kts | 238° |
| 2026-05-05 07:13 | -34.66582 | 150.61229 | 27323 ft | 420 kts | 238° |
| 2026-05-05 07:13 | -34.68301 | 150.58353 | 27884 ft | 423 kts | 238° |
| 2026-05-05 07:14 | -34.70048 | 150.55440 | 28414 ft | 426 kts | 238° |
| 2026-05-05 07:14 | -34.71803 | 150.52516 | 28965 ft | 430 kts | 238° |
| 2026-05-05 07:14 | -34.73571 | 150.49570 | 29464 ft | 433 kts | 238° |
| 2026-05-05 07:14 | -34.75352 | 150.46600 | 29954 ft | 436 kts | 238° |
| 2026-05-05 07:15 | -34.77149 | 150.43601 | 30399 ft | 440 kts | 238° |
| 2026-05-05 07:15 | -34.78931 | 150.40627 | 30790 ft | 442 kts | 238° |
| 2026-05-05 07:15 | -34.80752 | 150.37583 | 31185 ft | 445 kts | 239° |
| 2026-05-05 07:15 | -34.82597 | 150.34493 | 31630 ft | 447 kts | 239° |
| 2026-05-05 07:16 | -34.84398 | 150.31474 | 32002 ft | 449 kts | 239° |
| 2026-05-05 07:16 | -34.86245 | 150.28375 | 32400 ft | 452 kts | 239° |
| 2026-05-05 07:16 | -34.88095 | 150.25264 | 32744 ft | 455 kts | 239° |
| 2026-05-05 07:16 | -34.89953 | 150.22137 | 33073 ft | 457 kts | 239° |
| 2026-05-05 07:17 | -34.91828 | 150.18983 | 33417 ft | 460 kts | 240° |
| 2026-05-05 07:17 | -34.93706 | 150.15823 | 33713 ft | 463 kts | 239° |
| 2026-05-05 07:17 | -34.95601 | 150.12628 | 33983 ft | 466 kts | 240° |
| 2026-05-05 07:17 | -34.97511 | 150.09408 | 34296 ft | 469 kts | 239° |
| 2026-05-05 07:18 | -34.99422 | 150.06184 | 34589 ft | 470 kts | 239° |
| 2026-05-05 07:18 | -35.01339 | 150.02957 | 34987 ft | 468 kts | 239° |
| 2026-05-05 07:18 | -35.03240 | 149.99749 | 35409 ft | 466 kts | 239° |
| 2026-05-05 07:18 | -35.05131 | 149.96550 | 35733 ft | 466 kts | 239° |
| 2026-05-05 07:19 | -35.07020 | 149.93359 | 36077 ft | 465 kts | 239° |
| 2026-05-05 07:19 | -35.08942 | 149.90105 | 36414 ft | 465 kts | 240° |
| 2026-05-05 07:19 | -35.10819 | 149.86914 | 36725 ft | 464 kts | 239° |
| 2026-05-05 07:19 | -35.12705 | 149.83703 | 37057 ft | 464 kts | 239° |
| 2026-05-05 07:20 | -35.14558 | 149.80546 | 37364 ft | 463 kts | 239° |
| 2026-05-05 07:20 | -35.16436 | 149.77346 | 37676 ft | 463 kts | 239° |
| 2026-05-05 07:20 | -35.18315 | 149.74146 | 38000 ft | 462 kts | 239° |
| 2026-05-05 07:20 | -35.20179 | 149.70968 | 38318 ft | 461 kts | 240° |
| 2026-05-05 07:21 | -35.22048 | 149.67777 | 38610 ft | 460 kts | 240° |
| 2026-05-05 07:21 | -35.23910 | 149.64597 | 38877 ft | 460 kts | 240° |
| 2026-05-05 07:21 | -35.25768 | 149.61421 | 39076 ft | 459 kts | 240° |
| 2026-05-05 07:21 | -35.27625 | 149.58241 | 39255 ft | 460 kts | 239° |
| 2026-05-05 07:22 | -35.29498 | 149.55031 | 39400 ft | 461 kts | 239° |
| 2026-05-05 07:22 | -35.31358 | 149.51841 | 39570 ft | 461 kts | 239° |
| 2026-05-05 07:22 | -35.33226 | 149.48640 | 39756 ft | 462 kts | 239° |
| 2026-05-05 07:22 | -35.34456 | 149.46531 | 39860 ft | 462 kts | 239° |
| 2026-05-05 07:23 | -35.36951 | 149.42243 | 40089 ft | 462 kts | 239° |
| 2026-05-05 07:23 | -35.40061 | 149.36885 | 40157 ft | 465 kts | 239° |
| 2026-05-05 07:24 | -35.43808 | 149.30424 | 40162 ft | 464 kts | 239° |
| 2026-05-05 07:24 | -35.47541 | 149.23977 | 40160 ft | 464 kts | 239° |
| 2026-05-05 07:25 | -35.51271 | 149.17522 | 40157 ft | 464 kts | 239° |
| 2026-05-05 07:25 | -35.54981 | 149.11090 | 40156 ft | 464 kts | 239° |
| 2026-05-05 07:26 | -35.58714 | 149.04606 | 40158 ft | 463 kts | 239° |
| 2026-05-05 07:26 | -35.62432 | 148.98135 | 40160 ft | 463 kts | 239° |
| 2026-05-05 07:27 | -35.66124 | 148.91700 | 40162 ft | 463 kts | 239° |
| 2026-05-05 07:27 | -35.69837 | 148.85215 | 40161 ft | 463 kts | 239° |
| 2026-05-05 07:28 | -35.73554 | 148.78710 | 40163 ft | 463 kts | 239° |
| 2026-05-05 07:28 | -35.77238 | 148.72250 | 40167 ft | 463 kts | 239° |
| 2026-05-05 07:29 | -35.80938 | 148.65753 | 40183 ft | 463 kts | 239° |
| 2026-05-05 07:29 | -35.84643 | 148.59233 | 40177 ft | 463 kts | 239° |
| 2026-05-05 07:30 | -35.88342 | 148.52712 | 40190 ft | 463 kts | 239° |
| 2026-05-05 07:30 | -35.93834 | 148.42983 | 40197 ft | 462 kts | 239° |
| 2026-05-05 07:31 | -35.97493 | 148.36462 | 40205 ft | 462 kts | 239° |
| 2026-05-05 07:31 | -36.01150 | 148.29941 | 40207 ft | 461 kts | 239° |
| 2026-05-05 07:32 | -36.04802 | 148.23423 | 40209 ft | 461 kts | 239° |
| 2026-05-05 07:32 | -36.08452 | 148.16895 | 40210 ft | 461 kts | 239° |
| 2026-05-05 07:33 | -36.12099 | 148.10362 | 40210 ft | 461 kts | 239° |
| 2026-05-05 07:33 | -36.15733 | 148.03871 | 40208 ft | 461 kts | 239° |
| 2026-05-05 07:34 | -36.19383 | 147.97334 | 40206 ft | 461 kts | 239° |
| 2026-05-05 07:34 | -36.23033 | 147.90782 | 40204 ft | 461 kts | 239° |
| 2026-05-05 07:35 | -36.26676 | 147.84233 | 40224 ft | 461 kts | 239° |
| 2026-05-05 07:35 | -36.30318 | 147.77674 | 40207 ft | 461 kts | 239° |
| 2026-05-05 07:36 | -36.33955 | 147.71118 | 40208 ft | 461 kts | 239° |
| 2026-05-05 07:36 | -36.37557 | 147.64600 | 40212 ft | 461 kts | 239° |
| 2026-05-05 07:37 | -36.41170 | 147.58027 | 40219 ft | 461 kts | 239° |
| 2026-05-05 07:37 | -36.44788 | 147.51437 | 40211 ft | 461 kts | 239° |
| 2026-05-05 07:38 | -36.48396 | 147.44859 | 40210 ft | 460 kts | 239° |
| 2026-05-05 07:38 | -36.51981 | 147.38311 | 40211 ft | 461 kts | 239° |
| 2026-05-05 07:39 | -36.55585 | 147.31717 | 40211 ft | 461 kts | 239° |
| 2026-05-05 07:39 | -36.59184 | 147.25118 | 40210 ft | 461 kts | 239° |
| 2026-05-05 07:40 | -36.62780 | 147.18514 | 40212 ft | 461 kts | 239° |
| 2026-05-05 07:40 | -36.66372 | 147.11901 | 40213 ft | 461 kts | 239° |
| 2026-05-05 07:41 | -36.69962 | 147.05281 | 40213 ft | 461 kts | 239° |
| 2026-05-05 07:41 | -36.73532 | 146.98707 | 39718 ft | 457 kts | 239° |
| 2026-05-05 07:42 | -36.75340 | 146.95366 | 38985 ft | 460 kts | 239° |
| 2026-05-05 07:42 | -36.77111 | 146.92086 | 38080 ft | 462 kts | 239° |
| 2026-05-05 07:42 | -36.78904 | 146.88748 | 37187 ft | 465 kts | 239° |
| 2026-05-05 07:42 | -36.80724 | 146.85357 | 36296 ft | 467 kts | 238° |
| 2026-05-05 07:43 | -36.82536 | 146.81980 | 35407 ft | 469 kts | 237° |
| 2026-05-05 07:43 | -36.84330 | 146.78639 | 34560 ft | 471 kts | 237° |
| 2026-05-05 07:43 | -36.86162 | 146.75228 | 33620 ft | 473 kts | 236° |
| 2026-05-05 07:43 | -36.88005 | 146.71796 | 32604 ft | 475 kts | 236° |
| 2026-05-05 07:44 | -36.89851 | 146.68353 | 31619 ft | 477 kts | 236° |
| 2026-05-05 07:44 | -36.91700 | 146.64903 | 30834 ft | 476 kts | 235° |
| 2026-05-05 07:44 | -36.93516 | 146.61509 | 30558 ft | 464 kts | 235° |
| 2026-05-05 07:44 | -36.95286 | 146.58196 | 30311 ft | 452 kts | 235° |
| 2026-05-05 07:45 | -36.97020 | 146.54947 | 30033 ft | 449 kts | 235° |
| 2026-05-05 07:45 | -36.98760 | 146.51687 | 29744 ft | 449 kts | 235° |
| 2026-05-05 07:45 | -37.00473 | 146.48476 | 29467 ft | 448 kts | 235° |
| 2026-05-05 07:45 | -37.02197 | 146.45239 | 29187 ft | 446 kts | 235° |
| 2026-05-05 07:46 | -37.03915 | 146.42011 | 28899 ft | 445 kts | 235° |
| 2026-05-05 07:46 | -37.05626 | 146.38792 | 28629 ft | 443 kts | 235° |
| 2026-05-05 07:46 | -37.07333 | 146.35579 | 28366 ft | 441 kts | 235° |
| 2026-05-05 07:46 | -37.09027 | 146.32392 | 27813 ft | 438 kts | 235° |
| 2026-05-05 07:47 | -37.10723 | 146.29196 | 26863 ft | 443 kts | 235° |
| 2026-05-05 07:47 | -37.12403 | 146.26022 | 26168 ft | 441 kts | 235° |
| 2026-05-05 07:47 | -37.14089 | 146.22827 | 25575 ft | 437 kts | 235° |
| 2026-05-05 07:47 | -37.15785 | 146.19613 | 24976 ft | 433 kts | 235° |
| 2026-05-05 07:48 | -37.17414 | 146.16522 | 24406 ft | 429 kts | 235° |
| 2026-05-05 07:48 | -37.19056 | 146.13406 | 23830 ft | 426 kts | 235° |
| 2026-05-05 07:48 | -37.20683 | 146.10317 | 23181 ft | 422 kts | 235° |
| 2026-05-05 07:48 | -37.22287 | 146.07271 | 22567 ft | 416 kts | 236° |
| 2026-05-05 07:49 | -37.23876 | 146.04250 | 22022 ft | 411 kts | 236° |
| 2026-05-05 07:49 | -37.25432 | 146.01288 | 21562 ft | 403 kts | 236° |
| 2026-05-05 07:49 | -37.26966 | 145.98365 | 20983 ft | 399 kts | 236° |
| 2026-05-05 07:49 | -37.28494 | 145.95453 | 20371 ft | 397 kts | 236° |
| 2026-05-05 07:50 | -37.29994 | 145.92592 | 19634 ft | 387 kts | 236° |
| 2026-05-05 07:50 | -37.31473 | 145.89772 | 18495 ft | 384 kts | 236° |
| 2026-05-05 07:50 | -37.32937 | 145.86986 | 17273 ft | 380 kts | 236° |
| 2026-05-05 07:50 | -37.34380 | 145.84236 | 16131 ft | 374 kts | 236° |
| 2026-05-05 07:51 | -37.35793 | 145.81540 | 15090 ft | 367 kts | 236° |
| 2026-05-05 07:51 | -37.37189 | 145.78873 | 14068 ft | 359 kts | 235° |
| 2026-05-05 07:51 | -37.38535 | 145.76302 | 12917 ft | 354 kts | 236° |
| 2026-05-05 07:51 | -37.39882 | 145.73729 | 11773 ft | 349 kts | 236° |
| 2026-05-05 07:52 | -37.41203 | 145.71203 | 10930 ft | 338 kts | 236° |
| 2026-05-05 07:52 | -37.42454 | 145.68806 | 10418 ft | 317 kts | 236° |
| 2026-05-05 07:52 | -37.43612 | 145.66572 | 10243 ft | 290 kts | 236° |
| 2026-05-05 07:52 | -37.44510 | 145.64406 | 10225 ft | 276 kts | 247° |
| 2026-05-05 07:53 | -37.44988 | 145.62079 | 10033 ft | 278 kts | 261° |
| 2026-05-05 07:53 | -37.45052 | 145.60741 | 10000 ft | 280 kts | 267° |
| 2026-05-05 07:53 | -37.45029 | 145.58288 | 9980 ft | 281 kts | 268° |
| 2026-05-05 07:53 | -37.44993 | 145.55826 | 9982 ft | 281 kts | 268° |
| 2026-05-05 07:54 | -37.44962 | 145.53361 | 9993 ft | 283 kts | 268° |
| 2026-05-05 07:54 | -37.44933 | 145.50882 | 9989 ft | 282 kts | 268° |
| 2026-05-05 07:54 | -37.44903 | 145.48422 | 9985 ft | 281 kts | 268° |
| 2026-05-05 07:54 | -37.44876 | 145.46156 | 9987 ft | 280 kts | 268° |
| 2026-05-05 07:56 | -37.44851 | 145.44011 | 9984 ft | 280 kts | 268° |
| 2026-05-05 07:56 | -37.44823 | 145.41555 | 9985 ft | 281 kts | 268° |
| 2026-05-05 07:56 | -37.44804 | 145.39097 | 9986 ft | 281 kts | 266° |
| 2026-05-05 07:56 | -37.44793 | 145.36665 | 9953 ft | 281 kts | 268° |
| 2026-05-05 07:57 | -37.44763 | 145.34201 | 9748 ft | 280 kts | 268° |
| 2026-05-05 07:57 | -37.44722 | 145.31749 | 9511 ft | 279 kts | 269° |
| 2026-05-05 07:57 | -37.44683 | 145.29326 | 9269 ft | 276 kts | 269° |
| 2026-05-05 07:57 | -37.44647 | 145.26931 | 9092 ft | 275 kts | 269° |
| 2026-05-05 07:58 | -37.44613 | 145.24545 | 8639 ft | 270 kts | 269° |
| 2026-05-05 07:58 | -37.44580 | 145.22168 | 8033 ft | 272 kts | 269° |
| 2026-05-05 07:58 | -37.44548 | 145.19782 | 7607 ft | 271 kts | 270° |
| 2026-05-05 07:58 | -37.44515 | 145.17428 | 7257 ft | 268 kts | 270° |
| 2026-05-05 07:59 | -37.44482 | 145.15105 | 7020 ft | 268 kts | 270° |
| 2026-05-05 07:59 | -37.44448 | 145.12735 | 6775 ft | 267 kts | 270° |
| 2026-05-05 07:59 | -37.44414 | 145.10427 | 6476 ft | 267 kts | 270° |
| 2026-05-05 07:59 | -37.44379 | 145.08080 | 6052 ft | 267 kts | 270° |
| 2026-05-05 08:00 | -37.44344 | 145.05766 | 5805 ft | 259 kts | 270° |
| 2026-05-05 08:00 | -37.44311 | 145.03554 | 5634 ft | 248 kts | 270° |
| 2026-05-05 08:00 | -37.44277 | 145.01408 | 5402 ft | 242 kts | 270° |
| 2026-05-05 08:00 | -37.44243 | 144.99301 | 5095 ft | 239 kts | 270° |
| 2026-05-05 08:01 | -37.44209 | 144.97202 | 4853 ft | 239 kts | 270° |
| 2026-05-05 08:01 | -37.44184 | 144.95112 | 4564 ft | 240 kts | 268° |
| 2026-05-05 08:01 | -37.44340 | 144.93062 | 4230 ft | 237 kts | 260° |
| 2026-05-05 08:01 | -37.44621 | 144.91013 | 3868 ft | 237 kts | 259° |
| 2026-05-05 08:02 | -37.44915 | 144.88986 | 3517 ft | 235 kts | 258° |
| 2026-05-05 08:02 | -37.45205 | 144.86973 | 3259 ft | 229 kts | 258° |
| 2026-05-05 08:02 | -37.45481 | 144.85039 | 3110 ft | 219 kts | 259° |
| 2026-05-05 08:02 | -37.45745 | 144.83188 | 2991 ft | 208 kts | 258° |
| 2026-05-05 08:03 | -37.46206 | 144.81567 | 2968 ft | 189 kts | 230° |
| 2026-05-05 08:03 | -37.47282 | 144.80739 | 3023 ft | 183 kts | 198° |
| 2026-05-05 08:03 | -37.48544 | 144.80453 | 2993 ft | 186 kts | 181° |
| 2026-05-05 08:03 | -37.49819 | 144.80608 | 2987 ft | 187 kts | 172° |
| 2026-05-05 08:04 | -37.51108 | 144.80853 | 2998 ft | 187 kts | 173° |
| 2026-05-05 08:04 | -37.52391 | 144.81092 | 2987 ft | 182 kts | 173° |
| 2026-05-05 08:04 | -37.53583 | 144.81310 | 2855 ft | 166 kts | 174° |
| 2026-05-05 08:04 | -37.54687 | 144.81509 | 2632 ft | 154 kts | 174° |
| 2026-05-05 08:05 | -37.55720 | 144.81701 | 2411 ft | 145 kts | 174° |
| 2026-05-05 08:05 | -37.56689 | 144.81882 | 2204 ft | 137 kts | 174° |
| 2026-05-05 08:05 | -37.57629 | 144.82057 | 2034 ft | 136 kts | 174° |
| 2026-05-05 08:05 | -37.58570 | 144.82232 | 1839 ft | 136 kts | 174° |
| 2026-05-05 08:06 | -37.59490 | 144.82404 | 1660 ft | 136 kts | 173° |
| 2026-05-05 08:06 | -37.60427 | 144.82579 | 1466 ft | 136 kts | 173° |
| 2026-05-05 08:06 | -37.61366 | 144.82754 | 1279 ft | 137 kts | 173° |
| 2026-05-05 08:06 | -37.62309 | 144.82931 | 1089 ft | 136 kts | 174° |
| 2026-05-05 08:07 | -37.63250 | 144.83106 | 899 ft | 136 kts | 174° |
| 2026-05-05 08:07 | -37.64177 | 144.83280 | 720 ft | 138 kts | 174° |
| 2026-05-05 08:07 | -37.65120 | 144.83454 | 540 ft | 137 kts | 174° |
| 2026-05-05 08:07 | -37.66046 | 144.83628 | 422 ft | 134 kts | 174° |
| 2026-05-05 08:08 | -37.66896 | 144.83783 | 397 ft | 102 kts | 171° |
| 2026-05-05 08:08 | -37.67393 | 144.83877 | 377 ft | 43 kts | 172° |
| 2026-05-05 08:08 | -37.67590 | 144.83915 | 372 ft | 32 kts | 171° |
| 2026-05-05 08:08 | -37.67851 | 144.83992 | 366 ft | 21 kts | 134° |
| 2026-05-05 08:09 | -37.67871 | 144.84047 | 369 ft | 9 kts | 110° |
| 2026-05-05 08:09 | -37.67874 | 144.84104 | 367 ft | 0 kts | 83° |
| 2026-05-05 08:11 | -37.67868 | 144.84156 | 370 ft | 11 kts | 80° |
| 2026-05-05 08:11 | -37.67826 | 144.84180 | 371 ft | 6 kts | 350° |
| 2026-05-05 08:11 | -37.67797 | 144.84173 | 373 ft | 6 kts | 349° |
| 2026-05-05 08:12 | -37.67755 | 144.84165 | 371 ft | 6 kts | 351° |
| 2026-05-05 08:12 | -37.67753 | 144.84164 | 371 ft | 0 kts | 351° |
| 2026-05-05 08:13 | -37.67745 | 144.84163 | 376 ft | 8 kts | 351° |
| 2026-05-05 08:13 | -37.67676 | 144.84149 | 373 ft | 17 kts | 351° |
| 2026-05-05 08:13 | -37.67568 | 144.84128 | 375 ft | 4 kts | 352° |
| 2026-05-05 08:13 | -37.67538 | 144.84128 | 376 ft | 7 kts | 10° |
| 2026-05-05 08:14 | -37.67501 | 144.84195 | 378 ft | 11 kts | 81° |
| 2026-05-05 08:14 | -37.67533 | 144.84307 | 380 ft | 21 kts | 136° |
| 2026-05-05 08:14 | -37.67626 | 144.84354 | 378 ft | 7 kts | 144° |
| 2026-05-05 08:14 | -37.67632 | 144.84404 | 378 ft | 6 kts | 90° |
| 2026-05-05 08:15 | -37.67628 | 144.84447 | 379 ft | 0 kts | 81° |
| 2026-05-05 08:15 | -37.67628 | 144.84448 | 379 ft | 0 kts | 81° |